createdAt,value
2022-08-17T00:00:34.523Z,2.65
2022-08-17T00:03:10.635Z,2.80
2022-08-17T00:05:47.275Z,1.77
2022-08-17T00:08:16.800Z,3.05
2022-08-17T00:10:45.332Z,2.70
2022-08-17T00:13:16.746Z,3.33
2022-08-17T00:15:44.889Z,2.75
2022-08-17T00:19:01.792Z,3.05
2022-08-17T00:20:59.743Z,2.78
2022-08-17T00:23:27.646Z,2.50
2022-08-17T00:25:54.928Z,2.67
2022-08-17T00:28:21.782Z,2.17
2022-08-17T00:30:53.033Z,2.65
2022-08-17T00:33:26.048Z,2.75
2022-08-17T00:35:54.002Z,2.33
2022-08-17T00:38:21.556Z,2.78
2022-08-17T00:40:55.837Z,1.60
2022-08-17T00:43:28.790Z,1.98
2022-08-17T00:45:56.493Z,2.72
2022-08-17T00:48:23.828Z,2.55
2022-08-17T00:51:18.905Z,2.03
2022-08-17T00:53:51.935Z,2.03
2022-08-17T00:56:24.217Z,2.30
2022-08-17T00:58:52.351Z,2.67
2022-08-17T01:01:21.537Z,3.05
2022-08-17T01:03:50.890Z,2.58
2022-08-17T01:06:17.979Z,3.05
2022-08-17T01:08:44.952Z,3.40
2022-08-17T01:11:11.733Z,2.63
2022-08-17T01:13:42.645Z,2.90
2022-08-17T01:16:24.425Z,3.15
2022-08-17T01:18:54.366Z,1.65
2022-08-17T01:21:38.001Z,3.22
2022-08-17T01:24:04.950Z,1.30
2022-08-17T01:26:33.113Z,2.50
2022-08-17T01:29:00.827Z,2.78
2022-08-17T01:31:33.292Z,2.80
2022-08-17T01:34:02.746Z,2.53
2022-08-17T01:36:29.601Z,2.30
2022-08-17T01:38:56.602Z,2.65
2022-08-17T01:41:23.949Z,3.33
2022-08-17T01:44:02.850Z,2.70
2022-08-17T01:46:34.579Z,2.50
2022-08-17T01:49:02.009Z,2.00
2022-08-17T01:51:32.818Z,2.08
2022-08-17T01:56:50.129Z,2.47
2022-08-17T01:59:19.380Z,2.33
2022-08-17T02:01:47.578Z,2.25
2022-08-17T02:04:15.052Z,2.45
2022-08-17T02:06:52.859Z,1.80
2022-08-17T02:09:24.043Z,2.03
2022-08-17T02:11:54.102Z,2.53
2022-08-17T02:14:21.735Z,2.20
2022-08-17T02:16:48.551Z,2.10
2022-08-17T02:19:16.136Z,2.50
2022-08-17T02:21:44.737Z,1.80
2022-08-17T02:24:17.161Z,2.75
2022-08-17T02:26:44.026Z,3.17
2022-08-17T02:29:10.757Z,2.85
2022-08-17T02:31:37.921Z,2.17
2022-08-17T02:34:05.312Z,2.20
2022-08-17T02:36:34.366Z,2.70
2022-08-17T02:39:03.963Z,2.20
2022-08-17T02:41:31.073Z,2.05
2022-08-17T02:43:57.850Z,1.30
2022-08-17T02:46:24.680Z,2.15
2022-08-17T02:48:51.483Z,2.50
2022-08-17T02:51:18.388Z,2.10
2022-08-17T02:53:45.161Z,2.00
2022-08-17T02:56:11.968Z,2.25
2022-08-17T02:58:39.003Z,1.60
2022-08-17T03:01:07.880Z,2.42
2022-08-17T03:03:36.054Z,2.63
2022-08-17T03:06:03.773Z,2.75
2022-08-17T03:08:30.697Z,2.20
2022-08-17T03:10:57.800Z,2.38
2022-08-17T03:13:24.601Z,2.35
2022-08-17T03:15:51.831Z,1.63
2022-08-17T03:18:24.547Z,1.45
2022-08-17T03:20:58.347Z,1.48
2022-08-17T03:23:26.279Z,1.50
2022-08-17T03:25:55.019Z,1.65
2022-08-17T03:28:23.318Z,2.38
2022-08-17T03:30:51.317Z,2.78
2022-08-17T03:33:19.004Z,2.63
2022-08-17T03:35:46.044Z,1.77
2022-08-17T03:38:14.993Z,2.30
2022-08-17T03:40:58.021Z,2.10
2022-08-17T03:43:29.714Z,2.30
2022-08-17T03:46:28.248Z,2.05
2022-08-17T03:49:22.796Z,1.95
2022-08-17T03:52:08.001Z,1.88
2022-08-17T03:54:53.642Z,1.85
2022-08-17T03:57:20.525Z,1.50
2022-08-17T03:59:47.931Z,1.58
2022-08-17T04:02:29.003Z,1.50
2022-08-17T04:04:56.314Z,2.50
2022-08-17T04:07:25.260Z,2.30
2022-08-17T04:09:52.107Z,1.70
2022-08-17T04:12:21.808Z,1.70
2022-08-17T04:14:52.625Z,2.05
2022-08-17T04:17:27.792Z,1.95
2022-08-17T04:19:55.517Z,1.23
2022-08-17T04:22:30.333Z,1.10
2022-08-17T04:25:17.722Z,1.10
2022-08-17T04:27:44.576Z,0.98
2022-08-17T04:30:12.522Z,2.08
2022-08-17T04:33:06.006Z,1.20
2022-08-17T04:35:39.711Z,1.30
2022-08-17T04:38:08.425Z,1.00
2022-08-17T04:40:54.197Z,1.02
2022-08-17T04:43:23.298Z,0.93
2022-08-17T04:45:57.136Z,0.95
2022-08-17T04:48:34.750Z,1.13
2022-08-17T04:51:07.255Z,1.20
2022-08-17T04:53:34.091Z,0.73
2022-08-17T04:56:00.970Z,0.85
2022-08-17T04:58:27.890Z,0.80
2022-08-17T05:00:54.845Z,0.80
2022-08-17T05:03:21.694Z,1.10
2022-08-17T05:05:49.814Z,0.95
2022-08-17T05:08:18.714Z,1.65
2022-08-17T05:10:45.920Z,1.20
2022-08-17T05:13:18.717Z,1.10
2022-08-17T05:15:47.592Z,1.48
2022-08-17T05:18:15.302Z,1.27
2022-08-17T05:20:42.916Z,1.00
2022-08-17T05:23:13.105Z,1.05
2022-08-17T05:25:43.221Z,1.08
2022-08-17T05:28:16.460Z,0.93
2022-08-17T05:30:44.419Z,1.02
2022-08-17T05:33:32.555Z,1.00
2022-08-17T05:36:00.488Z,1.15
2022-08-17T05:38:29.276Z,1.45
2022-08-17T05:40:56.748Z,1.10
2022-08-17T05:43:27.292Z,1.30
2022-08-17T05:46:06.332Z,0.60
2022-08-17T05:48:42.953Z,1.13
2022-08-17T05:51:31.838Z,0.93
2022-08-17T05:54:08.100Z,1.58
2022-08-17T05:56:53.653Z,1.05
2022-08-17T05:59:39.224Z,1.50
2022-08-17T06:02:19.271Z,0.90
2022-08-17T06:04:49.026Z,0.98
2022-08-17T06:07:27.060Z,1.20
2022-08-17T06:09:54.011Z,1.60
2022-08-17T06:12:38.845Z,0.80
2022-08-17T06:15:15.102Z,0.82
2022-08-17T06:17:43.119Z,1.52
2022-08-17T06:20:13.064Z,0.85
2022-08-17T06:22:46.536Z,1.00
2022-08-17T06:25:44.671Z,1.15
2022-08-17T06:28:14.759Z,1.10
2022-08-17T06:30:59.406Z,1.30
2022-08-17T06:33:32.312Z,1.35
2022-08-17T06:36:19.357Z,1.30
2022-08-17T06:39:04.700Z,1.08
2022-08-17T06:41:54.754Z,1.25
2022-08-17T06:44:43.508Z,1.42
2022-08-17T06:47:36.623Z,1.00
2022-08-17T06:50:05.867Z,1.30
2022-08-17T06:52:42.450Z,2.00
2022-08-17T06:55:26.557Z,1.25
2022-08-17T06:57:58.275Z,1.42
2022-08-17T07:00:33.703Z,1.10
2022-08-17T07:03:35.815Z,1.33
2022-08-17T07:06:11.777Z,1.42
2022-08-17T07:08:47.765Z,1.52
2022-08-17T07:11:31.809Z,1.20
2022-08-17T07:14:17.634Z,1.42
2022-08-17T07:16:47.922Z,1.40
2022-08-17T07:19:16.876Z,1.17
2022-08-17T07:21:43.590Z,1.10
2022-08-17T07:24:29.195Z,1.17
2022-08-17T07:27:28.044Z,1.35
2022-08-17T07:29:58.194Z,1.40
2022-08-17T07:32:53.493Z,0.93
2022-08-17T07:35:31.310Z,1.13
2022-08-17T07:38:24.988Z,1.15
2022-08-17T07:41:02.678Z,1.13
2022-08-17T07:43:41.887Z,1.20
2022-08-17T07:46:30.376Z,1.02
2022-08-17T07:49:23.431Z,1.10
2022-08-17T07:51:50.567Z,1.27
2022-08-17T07:54:22.866Z,1.65
2022-08-17T07:56:55.333Z,1.30
2022-08-17T07:59:24.075Z,1.38
2022-08-17T08:01:58.115Z,1.10
2022-08-17T08:04:58.835Z,1.02
2022-08-17T08:07:17.357Z,1.02
2022-08-17T08:10:04.269Z,1.38
2022-08-17T08:12:37.910Z,1.02
2022-08-17T08:15:17.350Z,1.20
2022-08-17T08:17:57.615Z,1.10
2022-08-17T08:20:53.420Z,1.00
2022-08-17T08:23:37.125Z,1.60
2022-08-17T08:26:18.622Z,1.33
2022-08-17T08:29:12.615Z,1.52
2022-08-17T08:32:17.448Z,1.00
2022-08-17T08:35:01.547Z,1.35
2022-08-17T08:37:56.263Z,1.15
2022-08-17T08:40:35.690Z,1.50
2022-08-17T08:43:06.027Z,1.50
2022-08-17T08:45:57.834Z,1.27
2022-08-17T08:48:53.667Z,1.10
2022-08-17T08:51:36.169Z,1.20
2022-08-17T08:54:31.592Z,1.35
2022-08-17T08:57:24.315Z,1.20
2022-08-17T09:00:02.572Z,1.67
2022-08-17T09:02:38.609Z,1.00
2022-08-17T09:05:30.118Z,1.20
2022-08-17T09:08:31.857Z,0.65
2022-08-17T09:11:31.099Z,1.10
2022-08-17T09:14:28.337Z,1.20
2022-08-17T09:17:02.270Z,0.95
2022-08-17T09:19:34.374Z,0.80
2022-08-17T09:22:11.102Z,1.17
2022-08-17T09:25:07.594Z,0.82
2022-08-17T09:27:48.886Z,1.00
2022-08-17T09:30:16.218Z,1.40
2022-08-17T09:32:46.136Z,1.25
2022-08-17T09:35:25.183Z,1.10
2022-08-17T09:38:34.545Z,1.50
2022-08-17T09:41:18.287Z,1.25
2022-08-17T09:44:23.317Z,0.85
2022-08-17T09:46:58.749Z,1.00
2022-08-17T09:49:30.738Z,1.20
2022-08-17T09:52:19.575Z,1.08
2022-08-17T09:54:47.330Z,1.05
2022-08-17T09:57:30.269Z,1.00
2022-08-17T10:00:16.712Z,0.90
2022-08-17T10:03:16.454Z,0.90
2022-08-17T10:05:46.638Z,1.10
2022-08-17T10:08:28.871Z,1.27
2022-08-17T10:11:09.051Z,1.17
2022-08-17T10:13:53.723Z,1.00
2022-08-17T10:16:32.138Z,1.20
2022-08-17T10:19:23.401Z,1.33
2022-08-17T10:22:26.421Z,1.10
2022-08-17T10:25:22.537Z,1.48
2022-08-17T10:28:04.736Z,0.80
2022-08-17T10:30:33.879Z,1.00
2022-08-17T10:33:07.222Z,0.77
2022-08-17T10:35:46.111Z,0.98
2022-08-17T10:38:24.600Z,1.20
2022-08-17T10:41:00.759Z,1.10
2022-08-17T10:43:33.512Z,1.10
2022-08-17T10:46:10.531Z,0.70
2022-08-17T10:49:16.750Z,0.93
2022-08-17T10:51:52.974Z,1.40
2022-08-17T10:54:25.777Z,1.10
2022-08-17T10:56:54.500Z,1.27
2022-08-17T10:59:36.466Z,1.40
2022-08-17T11:02:18.423Z,1.00
2022-08-17T11:05:00.511Z,0.57
2022-08-17T11:07:48.595Z,1.08
2022-08-17T11:10:33.545Z,1.08
2022-08-17T11:13:01.418Z,1.15
2022-08-17T11:15:50.608Z,0.90
2022-08-17T11:18:26.450Z,0.82
2022-08-17T11:21:16.269Z,0.93
2022-08-17T11:24:05.184Z,1.23
2022-08-17T11:26:34.303Z,0.75
2022-08-17T11:29:05.378Z,1.25
2022-08-17T11:31:45.042Z,1.05
2022-08-17T11:34:21.672Z,1.20
2022-08-17T11:37:01.900Z,1.17
2022-08-17T11:39:34.555Z,1.10
2022-08-17T11:42:20.079Z,1.00
2022-08-17T11:44:50.700Z,1.05
2022-08-17T11:48:16.086Z,0.98
2022-08-17T11:51:03.915Z,1.35
2022-08-17T11:53:37.314Z,0.90
2022-08-17T11:56:30.272Z,0.90
2022-08-17T11:58:57.478Z,1.17
2022-08-17T12:01:26.968Z,0.95
2022-08-17T12:03:58.982Z,0.80
2022-08-17T12:06:45.256Z,1.10
2022-08-17T12:09:22.418Z,1.20
2022-08-17T12:11:58.699Z,1.00
2022-08-17T12:15:07.983Z,1.20
2022-08-17T12:17:41.107Z,1.17
2022-08-17T12:20:21.525Z,1.05
2022-08-17T12:22:53.536Z,0.80
2022-08-17T12:25:33.229Z,0.88
2022-08-17T12:28:06.913Z,1.05
2022-08-17T12:30:35.721Z,1.30
2022-08-17T12:33:02.587Z,0.93
2022-08-17T12:35:35.942Z,1.23
2022-08-17T12:38:04.469Z,0.90
2022-08-17T12:40:32.611Z,1.13
2022-08-17T12:43:08.601Z,1.20
2022-08-17T12:45:41.866Z,1.00
2022-08-17T12:48:12.462Z,1.10
2022-08-17T12:50:42.472Z,0.88
2022-08-17T12:53:15.140Z,1.00
2022-08-17T12:55:43.163Z,1.25
2022-08-17T12:58:18.845Z,1.00
2022-08-17T13:00:49.688Z,1.00
2022-08-17T13:03:19.416Z,0.77
2022-08-17T13:05:52.492Z,1.05
2022-08-17T13:08:23.658Z,0.90
2022-08-17T13:10:58.349Z,0.80
2022-08-17T13:13:29.369Z,0.90
2022-08-17T13:16:02.343Z,0.90
2022-08-17T13:18:45.956Z,0.90
2022-08-17T13:21:28.138Z,1.20
2022-08-17T13:24:07.801Z,1.15
2022-08-17T13:26:38.265Z,1.05
2022-08-17T13:29:07.850Z,1.33
2022-08-17T13:31:52.788Z,1.10
2022-08-17T13:34:27.016Z,1.10
2022-08-17T13:37:29.920Z,1.33
2022-08-17T13:40:02.751Z,0.90
2022-08-17T13:42:55.467Z,1.13
2022-08-17T13:45:35.676Z,0.90
2022-08-17T13:48:08.518Z,1.00
2022-08-17T13:50:42.941Z,1.00
2022-08-17T13:53:27.079Z,1.17
2022-08-17T13:56:01.071Z,1.10
2022-08-17T13:58:35.950Z,0.93
2022-08-17T14:01:28.474Z,1.10
2022-08-17T14:03:56.415Z,1.08
2022-08-17T14:06:53.187Z,1.27
2022-08-17T14:09:12.568Z,1.10
2022-08-17T14:11:39.753Z,1.15
2022-08-17T14:14:06.713Z,0.90
2022-08-17T14:16:33.551Z,1.02
2022-08-17T14:19:00.510Z,1.13
2022-08-17T14:21:27.401Z,1.10
2022-08-17T14:23:55.110Z,1.00
2022-08-17T14:26:22.046Z,1.38
2022-08-17T14:28:56.588Z,1.30
2022-08-17T14:31:24.391Z,0.88
2022-08-17T14:33:52.072Z,1.00
2022-08-17T14:36:18.965Z,0.90
2022-08-17T14:38:45.910Z,1.20
2022-08-17T14:41:12.764Z,1.00
2022-08-17T14:43:39.973Z,1.00
2022-08-17T14:46:06.930Z,0.70
2022-08-17T14:48:35.870Z,0.90
2022-08-17T14:51:04.323Z,0.73
2022-08-17T14:53:31.160Z,0.88
2022-08-17T14:55:58.104Z,1.00
2022-08-17T14:58:26.041Z,1.10
2022-08-17T15:00:53.433Z,0.90
2022-08-17T15:03:20.339Z,0.90
2022-08-17T15:05:47.354Z,0.93
2022-08-17T15:08:14.835Z,1.02
2022-08-17T15:10:41.744Z,0.90
2022-08-17T15:13:27.550Z,0.90
2022-08-17T15:15:54.592Z,0.95
2022-08-17T15:18:21.591Z,1.10
2022-08-17T15:20:50.073Z,0.85
2022-08-17T15:23:20.573Z,0.95
2022-08-17T15:25:49.394Z,0.80
2022-08-17T15:28:16.669Z,0.80
2022-08-17T15:30:44.985Z,1.00
2022-08-17T15:33:20.513Z,0.68
2022-08-17T15:35:50.788Z,1.00
2022-08-17T15:38:18.556Z,1.00
2022-08-17T15:40:50.385Z,0.90
2022-08-17T15:43:24.938Z,1.00
2022-08-17T15:46:04.531Z,0.88
2022-08-17T15:48:42.582Z,0.90
2022-08-17T15:51:20.817Z,1.00
2022-08-17T15:53:50.783Z,0.90
2022-08-17T15:56:17.868Z,1.13
2022-08-17T15:58:46.710Z,1.10
2022-08-17T16:01:18.346Z,0.75
2022-08-17T16:04:05.097Z,1.25
2022-08-17T16:06:34.699Z,1.10
2022-08-17T16:09:01.553Z,1.33
2022-08-17T16:11:28.418Z,1.02
2022-08-17T16:13:56.051Z,1.30
2022-08-17T16:16:23.767Z,1.17
2022-08-17T16:18:53.536Z,0.80
2022-08-17T16:21:26.783Z,0.82
2022-08-17T16:23:59.273Z,1.08
2022-08-17T16:26:27.824Z,0.90
2022-08-17T16:28:55.550Z,1.02
2022-08-17T16:31:22.629Z,1.70
2022-08-17T16:34:15.460Z,0.80
2022-08-17T16:36:38.083Z,1.23
2022-08-17T16:39:04.877Z,0.88
2022-08-17T16:41:44.471Z,1.00
2022-08-17T16:44:19.567Z,1.33
2022-08-17T16:46:48.228Z,1.10
2022-08-17T16:49:35.865Z,1.10
2022-08-17T16:52:04.910Z,0.88
2022-08-17T16:54:31.930Z,0.98
2022-08-17T16:56:58.922Z,1.20
2022-08-17T16:59:38.762Z,0.85
2022-08-17T17:02:11.392Z,1.13
2022-08-17T17:04:50.409Z,1.10
2022-08-17T17:07:26.198Z,1.30
2022-08-17T17:09:55.536Z,1.00
2022-08-17T17:12:59.729Z,1.08
2022-08-17T17:15:10.783Z,1.20
2022-08-17T17:17:39.853Z,1.00
2022-08-17T17:20:12.143Z,1.20
2022-08-17T17:23:04.604Z,1.15
2022-08-17T17:25:57.400Z,1.10
2022-08-17T17:28:33.551Z,1.00
2022-08-17T17:31:11.936Z,1.33
2022-08-17T17:33:45.172Z,1.10
2022-08-17T17:36:30.129Z,1.02
2022-08-17T17:39:31.907Z,0.80
2022-08-17T17:42:00.004Z,1.10
2022-08-17T17:44:48.608Z,1.00
2022-08-17T17:47:16.652Z,0.85
2022-08-17T17:49:45.516Z,1.20
2022-08-17T17:52:21.049Z,1.33
2022-08-17T17:54:58.552Z,0.93
2022-08-17T17:57:46.939Z,1.00
2022-08-17T18:00:17.751Z,0.88
2022-08-17T18:02:51.406Z,1.60
2022-08-17T18:05:36.613Z,1.30
2022-08-17T18:08:12.293Z,1.67
2022-08-17T18:10:48.948Z,1.17
2022-08-17T18:13:21.208Z,1.45
2022-08-17T18:15:54.186Z,1.35
2022-08-17T18:18:38.400Z,1.30
2022-08-17T18:21:19.527Z,1.75
2022-08-17T18:26:45.136Z,1.65
2022-08-17T18:29:27.611Z,1.30
2022-08-17T18:32:29.944Z,1.38
2022-08-17T18:35:27.975Z,1.20
2022-08-17T18:38:20.445Z,1.20
2022-08-17T18:40:58.315Z,0.90
2022-08-17T18:43:44.447Z,1.30
2022-08-17T18:46:35.305Z,1.45
2022-08-17T18:49:24.225Z,1.02
2022-08-17T18:52:09.224Z,1.50
2022-08-17T18:54:39.151Z,1.10
2022-08-17T18:57:07.233Z,1.50
2022-08-17T18:59:49.821Z,1.60
2022-08-17T19:02:34.581Z,1.17
2022-08-17T19:05:26.407Z,1.15
2022-08-17T19:07:53.628Z,0.93
2022-08-17T19:10:28.336Z,1.00
2022-08-17T19:13:12.779Z,1.23
2022-08-17T19:16:13.841Z,1.10
2022-08-17T19:18:43.869Z,1.30
2022-08-17T19:21:18.890Z,1.25
2022-08-17T19:23:53.445Z,1.20
2022-08-17T19:26:55.457Z,1.17
2022-08-17T19:29:19.538Z,0.80
2022-08-17T19:31:49.651Z,0.98
2022-08-17T19:34:17.556Z,1.58
2022-08-17T19:37:15.505Z,1.70
2022-08-17T19:40:51.216Z,1.70
2022-08-17T19:44:03.567Z,2.10
2022-08-17T19:46:35.590Z,1.15
2022-08-17T19:49:11.841Z,1.65
2022-08-17T19:51:57.318Z,1.70
2022-08-17T19:54:31.458Z,1.15
2022-08-17T19:57:11.855Z,1.35
2022-08-17T19:59:38.646Z,2.25
2022-08-17T20:02:25.934Z,2.28
2022-08-17T20:04:55.589Z,1.70
2022-08-17T20:07:26.834Z,2.00
2022-08-17T20:10:07.972Z,2.58
2022-08-17T20:12:38.413Z,1.83
2022-08-17T20:15:10.075Z,1.80
2022-08-17T20:17:41.088Z,2.10
2022-08-17T20:23:04.886Z,1.23
2022-08-17T20:25:38.641Z,1.55
2022-08-17T20:28:16.555Z,1.27
2022-08-17T20:30:44.114Z,0.90
2022-08-17T20:33:29.559Z,2.47
2022-08-17T20:36:26.398Z,1.35
2022-08-17T20:38:57.016Z,1.50
2022-08-17T20:41:24.759Z,0.95
2022-08-17T20:43:58.434Z,1.10
2022-08-17T20:46:37.718Z,1.55
2022-08-17T20:49:19.813Z,1.80
2022-08-17T20:52:00.758Z,1.60
2022-08-17T20:54:40.931Z,1.27
2022-08-17T20:57:14.098Z,1.67
2022-08-17T20:59:45.138Z,1.05
2022-08-17T21:02:20.889Z,1.40
2022-08-17T21:04:50.526Z,0.90
2022-08-17T21:07:49.331Z,1.50
2022-08-17T21:10:31.044Z,0.80
2022-08-17T21:13:16.040Z,1.45
2022-08-17T21:16:16.609Z,1.00
2022-08-17T21:18:54.322Z,1.35
2022-08-17T21:21:33.791Z,1.23
2022-08-17T21:24:34.715Z,1.17
2022-08-17T21:27:23.144Z,1.20
2022-08-17T21:30:05.150Z,1.50
2022-08-17T21:32:35.576Z,1.10
2022-08-17T21:35:11.427Z,1.33
2022-08-17T21:37:42.619Z,1.92
2022-08-17T21:40:18.627Z,1.50
2022-08-17T21:42:55.181Z,1.10
2022-08-17T21:45:30.222Z,1.80
2022-08-17T21:48:15.264Z,1.50
2022-08-17T21:50:45.029Z,2.05
2022-08-17T21:53:21.790Z,1.40
2022-08-17T21:55:52.305Z,1.63
2022-08-17T21:58:40.431Z,1.50
2022-08-17T22:01:12.542Z,2.50
2022-08-17T22:03:40.742Z,1.20
2022-08-17T22:06:52.502Z,1.80
2022-08-17T22:10:10.917Z,1.45
2022-08-17T22:12:37.777Z,1.70
2022-08-17T22:15:07.457Z,1.13
2022-08-17T22:17:44.981Z,1.35
2022-08-17T22:20:17.790Z,1.40
2022-08-17T22:23:06.531Z,1.50
2022-08-17T22:25:39.409Z,1.50
2022-08-17T22:28:11.724Z,1.52
2022-08-17T22:31:01.732Z,1.70
2022-08-17T22:33:50.409Z,1.48
2022-08-17T22:36:34.527Z,1.13
2022-08-17T22:39:26.036Z,1.40
2022-08-17T22:41:57.101Z,1.77
2022-08-17T22:44:29.524Z,1.90
2022-08-17T22:47:03.748Z,1.55
2022-08-17T22:49:38.528Z,1.75
2022-08-17T22:52:34.509Z,1.38
2022-08-17T22:55:33.408Z,1.27
2022-08-17T22:58:19.585Z,1.30
2022-08-17T23:00:48.287Z,1.60
2022-08-17T23:03:15.083Z,1.30
2022-08-17T23:05:46.290Z,1.48
2022-08-17T23:08:14.129Z,1.35
2022-08-17T23:10:42.024Z,1.35
2022-08-17T23:13:12.020Z,1.80
2022-08-17T23:15:41.975Z,1.27
2022-08-17T23:18:08.899Z,1.38
2022-08-17T23:20:37.420Z,1.13
2022-08-17T23:23:06.789Z,1.60
2022-08-17T23:25:35.043Z,1.80
2022-08-17T23:28:04.939Z,1.10
2022-08-17T23:30:36.412Z,1.50
2022-08-17T23:33:09.373Z,1.33
2022-08-17T23:35:39.665Z,1.02
2022-08-17T23:38:12.614Z,1.67
2022-08-17T23:40:40.436Z,1.50
2022-08-17T23:43:23.569Z,1.13
2022-08-17T23:45:56.257Z,1.15
2022-08-17T23:48:28.440Z,0.90
2022-08-17T23:51:09.264Z,1.53
2022-08-17T23:53:37.455Z,1.30
2022-08-17T23:56:09.261Z,1.52
2022-08-17T23:58:39.329Z,1.77
